sensor_id;sensor_type;location;lat;lon;timestamp;pressure;altitude;pressure_sealevel;temperature;humidity
39555;BME280;25231;48.746;9.234;2023-03-30T00:00:14;96427.88;;;13.62;76.07
39555;BME280;25231;48.746;9.234;2023-03-30T00:02:45;96425.47;;;13.61;76.26
39555;BME280;25231;48.746;9.234;2023-03-30T00:05:11;96419.41;;;13.60;76.18
39555;BME280;25231;48.746;9.234;2023-03-30T00:07:37;96420.47;;;13.59;75.44
39555;BME280;25231;48.746;9.234;2023-03-30T00:10:05;96426.28;;;13.61;75.89
39555;BME280;25231;48.746;9.234;2023-03-30T00:12:31;96431.53;;;13.61;75.44
39555;BME280;25231;48.746;9.234;2023-03-30T00:14:56;96434.16;;;13.61;74.70
39555;BME280;25231;48.746;9.234;2023-03-30T00:17:21;96435.25;;;13.65;74.81
39555;BME280;25231;48.746;9.234;2023-03-30T00:19:47;96438.44;;;13.67;73.93
39555;BME280;25231;48.746;9.234;2023-03-30T00:22:12;96430.81;;;13.71;74.50
39555;BME280;25231;48.746;9.234;2023-03-30T00:24:38;96426.56;;;13.65;74.67
39555;BME280;25231;48.746;9.234;2023-03-30T00:27:03;96415.75;;;13.66;74.60
39555;BME280;25231;48.746;9.234;2023-03-30T00:29:28;96416.34;;;13.73;74.59
39555;BME280;25231;48.746;9.234;2023-03-30T00:31:54;96421.59;;;13.73;74.67
39555;BME280;25231;48.746;9.234;2023-03-30T00:34:20;96410.03;;;13.74;74.85
39555;BME280;25231;48.746;9.234;2023-03-30T00:36:45;96414.22;;;13.70;74.88
39555;BME280;25231;48.746;9.234;2023-03-30T00:39:13;96404.47;;;13.71;74.93
39555;BME280;25231;48.746;9.234;2023-03-30T00:41:39;96403.16;;;13.73;75.05
39555;BME280;25231;48.746;9.234;2023-03-30T00:44:07;96397.38;;;13.77;74.98
39555;BME280;25231;48.746;9.234;2023-03-30T00:46:51;96401.09;;;13.76;74.89
39555;BME280;25231;48.746;9.234;2023-03-30T00:49:16;96396.63;;;13.76;75.06
39555;BME280;25231;48.746;9.234;2023-03-30T00:51:42;96382.66;;;13.81;74.88
39555;BME280;25231;48.746;9.234;2023-03-30T00:54:10;96372.38;;;13.79;75.12
39555;BME280;25231;48.746;9.234;2023-03-30T00:56:37;96375.00;;;13.74;75.18
39555;BME280;25231;48.746;9.234;2023-03-30T00:59:03;96378.13;;;13.71;75.54
39555;BME280;25231;48.746;9.234;2023-03-30T01:01:29;96375.81;;;13.80;75.24
39555;BME280;25231;48.746;9.234;2023-03-30T01:03:59;96374.22;;;13.79;75.37
39555;BME280;25231;48.746;9.234;2023-03-30T01:06:26;96370.78;;;13.73;75.73
39555;BME280;25231;48.746;9.234;2023-03-30T01:08:54;96364.22;;;13.76;75.65
39555;BME280;25231;48.746;9.234;2023-03-30T01:11:20;96365.25;;;13.74;75.77
39555;BME280;25231;48.746;9.234;2023-03-30T01:13:49;96362.06;;;13.72;76.34
39555;BME280;25231;48.746;9.234;2023-03-30T01:24:21;96362.06;;;13.72;76.80
39555;BME280;25231;48.746;9.234;2023-03-30T01:32:22;96395.00;;;13.70;77.49
39555;BME280;25231;48.746;9.234;2023-03-30T01:35:16;96404.44;;;13.66;81.54
39555;BME280;25231;48.746;9.234;2023-03-30T01:37:52;96399.09;;;13.51;85.99
39555;BME280;25231;48.746;9.234;2023-03-30T01:40:40;96410.34;;;13.41;88.86
39555;BME280;25231;48.746;9.234;2023-03-30T01:43:18;96389.28;;;13.41;90.61
39555;BME280;25231;48.746;9.234;2023-03-30T01:45:49;96378.44;;;13.32;92.19
39555;BME280;25231;48.746;9.234;2023-03-30T01:51:11;96373.94;;;13.28;95.17
39555;BME280;25231;48.746;9.234;2023-03-30T01:54:32;96361.28;;;13.25;97.14
39555;BME280;25231;48.746;9.234;2023-03-30T01:56:39;96361.00;;;13.26;99.57
39555;BME280;25231;48.746;9.234;2023-03-30T01:59:16;96377.84;;;13.20;100.00
39555;BME280;25231;48.746;9.234;2023-03-30T02:01:45;96380.75;;;13.24;100.00
39555;BME280;25231;48.746;9.234;2023-03-30T02:04:15;96390.44;;;13.18;100.00
39555;BME280;25231;48.746;9.234;2023-03-30T02:06:46;96383.59;;;13.17;100.00
39555;BME280;25231;48.746;9.234;2023-03-30T02:09:16;96387.19;;;13.11;100.00
39555;BME280;25231;48.746;9.234;2023-03-30T02:11:46;96381.94;;;13.11;100.00
39555;BME280;25231;48.746;9.234;2023-03-30T02:14:15;96382.97;;;13.10;100.00
39555;BME280;25231;48.746;9.234;2023-03-30T02:16:46;96386.69;;;13.09;100.00
39555;BME280;25231;48.746;9.234;2023-03-30T02:19:12;96391.63;;;13.06;100.00
39555;BME280;25231;48.746;9.234;2023-03-30T02:21:39;96388.47;;;13.04;100.00
39555;BME280;25231;48.746;9.234;2023-03-30T02:24:11;96384.75;;;13.00;100.00
39555;BME280;25231;48.746;9.234;2023-03-30T02:26:44;96398.41;;;12.97;100.00
39555;BME280;25231;48.746;9.234;2023-03-30T02:29:11;96395.44;;;12.88;100.00
39555;BME280;25231;48.746;9.234;2023-03-30T02:31:37;96400.72;;;12.93;100.00
39555;BME280;25231;48.746;9.234;2023-03-30T02:39:23;96405.16;;;12.87;100.00
39555;BME280;25231;48.746;9.234;2023-03-30T02:42:22;96400.13;;;12.81;100.00
39555;BME280;25231;48.746;9.234;2023-03-30T02:45:16;96398.28;;;12.81;100.00
39555;BME280;25231;48.746;9.234;2023-03-30T02:53:41;96395.47;;;12.61;100.00
39555;BME280;25231;48.746;9.234;2023-03-30T02:56:15;96394.19;;;12.64;100.00
39555;BME280;25231;48.746;9.234;2023-03-30T02:58:48;96385.50;;;12.63;100.00
39555;BME280;25231;48.746;9.234;2023-03-30T03:01:28;96374.97;;;12.63;100.00
39555;BME280;25231;48.746;9.234;2023-03-30T03:03:57;96377.81;;;12.57;100.00
39555;BME280;25231;48.746;9.234;2023-03-30T03:06:24;96362.03;;;12.57;100.00
39555;BME280;25231;48.746;9.234;2023-03-30T03:08:52;96369.59;;;12.48;100.00
39555;BME280;25231;48.746;9.234;2023-03-30T03:11:19;96347.22;;;12.45;100.00
39555;BME280;25231;48.746;9.234;2023-03-30T03:13:45;96344.69;;;12.29;100.00
39555;BME280;25231;48.746;9.234;2023-03-30T03:16:12;96333.03;;;12.20;100.00
39555;BME280;25231;48.746;9.234;2023-03-30T03:18:39;96318.78;;;12.16;100.00
39555;BME280;25231;48.746;9.234;2023-03-30T03:21:06;96314.31;;;12.16;100.00
39555;BME280;25231;48.746;9.234;2023-03-30T03:23:33;96312.25;;;12.18;100.00
39555;BME280;25231;48.746;9.234;2023-03-30T03:25:58;96306.72;;;12.15;100.00
39555;BME280;25231;48.746;9.234;2023-03-30T03:28:24;96314.88;;;12.18;100.00
39555;BME280;25231;48.746;9.234;2023-03-30T03:30:50;96318.50;;;12.12;100.00
39555;BME280;25231;48.746;9.234;2023-03-30T03:33:17;96310.63;;;12.12;100.00
39555;BME280;25231;48.746;9.234;2023-03-30T03:35:44;96300.41;;;12.16;100.00
39555;BME280;25231;48.746;9.234;2023-03-30T03:38:10;96295.41;;;12.14;100.00
39555;BME280;25231;48.746;9.234;2023-03-30T03:40:36;96300.34;;;12.11;100.00
39555;BME280;25231;48.746;9.234;2023-03-30T03:43:01;96283.25;;;12.08;100.00
39555;BME280;25231;48.746;9.234;2023-03-30T03:45:26;96288.50;;;12.08;100.00
39555;BME280;25231;48.746;9.234;2023-03-30T03:47:52;96294.81;;;12.07;100.00
39555;BME280;25231;48.746;9.234;2023-03-30T03:50:17;96307.84;;;11.97;100.00
39555;BME280;25231;48.746;9.234;2023-03-30T03:52:43;96312.09;;;12.03;100.00
39555;BME280;25231;48.746;9.234;2023-03-30T03:55:09;96316.84;;;12.06;100.00
39555;BME280;25231;48.746;9.234;2023-03-30T03:57:34;96309.47;;;12.03;100.00
39555;BME280;25231;48.746;9.234;2023-03-30T04:00:01;96304.56;;;12.12;100.00
39555;BME280;25231;48.746;9.234;2023-03-30T04:02:26;96308.53;;;12.14;100.00
39555;BME280;25231;48.746;9.234;2023-03-30T04:04:52;96299.06;;;12.13;100.00
39555;BME280;25231;48.746;9.234;2023-03-30T04:07:18;96292.50;;;12.16;100.00
39555;BME280;25231;48.746;9.234;2023-03-30T04:09:43;96285.19;;;12.18;100.00
39555;BME280;25231;48.746;9.234;2023-03-30T04:12:08;96285.16;;;12.13;100.00
39555;BME280;25231;48.746;9.234;2023-03-30T04:14:34;96284.63;;;12.16;100.00
39555;BME280;25231;48.746;9.234;2023-03-30T04:16:59;96278.91;;;12.19;100.00
39555;BME280;25231;48.746;9.234;2023-03-30T04:19:25;96270.47;;;12.17;100.00
39555;BME280;25231;48.746;9.234;2023-03-30T04:21:52;96250.28;;;12.22;100.00
39555;BME280;25231;48.746;9.234;2023-03-30T04:24:20;96236.91;;;12.24;100.00
39555;BME280;25231;48.746;9.234;2023-03-30T04:26:47;96239.81;;;12.27;100.00
39555;BME280;25231;48.746;9.234;2023-03-30T04:29:16;96241.16;;;12.30;100.00
39555;BME280;25231;48.746;9.234;2023-03-30T04:31:42;96228.81;;;12.30;100.00
39555;BME280;25231;48.746;9.234;2023-03-30T04:34:11;96215.16;;;12.33;100.00
39555;BME280;25231;48.746;9.234;2023-03-30T04:36:37;96215.19;;;12.38;100.00
39555;BME280;25231;48.746;9.234;2023-03-30T04:39:02;96211.25;;;12.36;100.00
39555;BME280;25231;48.746;9.234;2023-03-30T04:41:31;96209.41;;;12.36;100.00
39555;BME280;25231;48.746;9.234;2023-03-30T04:44:02;96195.00;;;12.44;100.00
39555;BME280;25231;48.746;9.234;2023-03-30T04:46:27;96206.34;;;12.49;100.00
39555;BME280;25231;48.746;9.234;2023-03-30T04:48:52;96191.59;;;12.48;100.00
39555;BME280;25231;48.746;9.234;2023-03-30T04:51:18;96204.75;;;12.48;100.00
39555;BME280;25231;48.746;9.234;2023-03-30T04:53:43;96203.72;;;12.49;100.00
39555;BME280;25231;48.746;9.234;2023-03-30T04:56:08;96198.97;;;12.46;100.00
39555;BME280;25231;48.746;9.234;2023-03-30T04:58:34;96193.75;;;12.52;100.00
39555;BME280;25231;48.746;9.234;2023-03-30T05:00:59;96204.03;;;12.53;100.00
39555;BME280;25231;48.746;9.234;2023-03-30T05:03:25;96209.56;;;12.57;100.00
39555;BME280;25231;48.746;9.234;2023-03-30T05:05:51;96214.25;;;12.55;100.00
39555;BME280;25231;48.746;9.234;2023-03-30T05:08:16;96222.66;;;12.52;100.00
39555;BME280;25231;48.746;9.234;2023-03-30T05:10:41;96213.56;;;12.32;100.00
39555;BME280;25231;48.746;9.234;2023-03-30T05:13:07;96206.81;;;12.41;100.00
39555;BME280;25231;48.746;9.234;2023-03-30T05:15:32;96195.94;;;12.28;100.00
39555;BME280;25231;48.746;9.234;2023-03-30T05:17:58;96179.09;;;12.24;100.00
39555;BME280;25231;48.746;9.234;2023-03-30T05:20:24;96186.75;;;12.25;100.00
39555;BME280;25231;48.746;9.234;2023-03-30T05:22:49;96178.31;;;12.23;100.00
39555;BME280;25231;48.746;9.234;2023-03-30T05:25:15;96175.69;;;12.23;100.00
39555;BME280;25231;48.746;9.234;2023-03-30T05:27:40;96180.69;;;12.25;100.00
39555;BME280;25231;48.746;9.234;2023-03-30T05:30:06;96180.19;;;12.33;100.00
39555;BME280;25231;48.746;9.234;2023-03-30T05:32:32;96175.47;;;12.30;100.00
39555;BME280;25231;48.746;9.234;2023-03-30T05:34:57;96172.03;;;12.29;100.00
39555;BME280;25231;48.746;9.234;2023-03-30T05:37:23;96168.63;;;12.29;100.00
39555;BME280;25231;48.746;9.234;2023-03-30T05:39:48;96167.34;;;12.31;100.00
39555;BME280;25231;48.746;9.234;2023-03-30T05:42:13;96180.97;;;12.28;100.00
39555;BME280;25231;48.746;9.234;2023-03-30T05:44:39;96173.31;;;12.27;100.00
39555;BME280;25231;48.746;9.234;2023-03-30T05:47:04;96167.03;;;12.28;100.00
39555;BME280;25231;48.746;9.234;2023-03-30T05:49:30;96153.38;;;12.26;100.00
39555;BME280;25231;48.746;9.234;2023-03-30T05:51:55;96160.94;;;12.22;100.00
39555;BME280;25231;48.746;9.234;2023-03-30T05:54:21;96173.03;;;12.23;100.00
39555;BME280;25231;48.746;9.234;2023-03-30T05:56:46;96174.63;;;12.24;100.00
39555;BME280;25231;48.746;9.234;2023-03-30T05:59:12;96179.09;;;12.24;100.00
39555;BME280;25231;48.746;9.234;2023-03-30T06:01:38;96185.97;;;12.30;100.00
39555;BME280;25231;48.746;9.234;2023-03-30T06:04:03;96201.75;;;12.30;100.00
39555;BME280;25231;48.746;9.234;2023-03-30T06:06:30;96207.47;;;12.27;100.00
39555;BME280;25231;48.746;9.234;2023-03-30T06:08:56;96210.47;;;12.35;100.00
39555;BME280;25231;48.746;9.234;2023-03-30T06:11:21;96215.75;;;12.40;100.00
39555;BME280;25231;48.746;9.234;2023-03-30T06:13:47;96212.84;;;12.37;100.00
39555;BME280;25231;48.746;9.234;2023-03-30T06:16:12;96235.47;;;12.43;100.00
39555;BME280;25231;48.746;9.234;2023-03-30T06:18:38;96258.41;;;12.47;100.00
39555;BME280;25231;48.746;9.234;2023-03-30T06:21:04;96257.56;;;12.42;100.00
39555;BME280;25231;48.746;9.234;2023-03-30T06:23:33;96254.38;;;12.40;100.00
39555;BME280;25231;48.746;9.234;2023-03-30T06:25:59;96258.34;;;12.42;100.00
39555;BME280;25231;48.746;9.234;2023-03-30T06:28:25;96260.38;;;12.35;100.00
39555;BME280;25231;48.746;9.234;2023-03-30T06:30:51;96249.88;;;12.35;100.00
39555;BME280;25231;48.746;9.234;2023-03-30T06:33:18;96245.47;;;12.41;100.00
39555;BME280;25231;48.746;9.234;2023-03-30T06:35:47;96244.25;;;12.54;100.00
39555;BME280;25231;48.746;9.234;2023-03-30T06:38:14;96258.94;;;12.55;100.00
39555;BME280;25231;48.746;9.234;2023-03-30T06:40:40;96254.69;;;12.48;100.00
39555;BME280;25231;48.746;9.234;2023-03-30T06:43:06;96267.94;;;12.59;100.00
39555;BME280;25231;48.746;9.234;2023-03-30T06:45:32;96262.41;;;12.60;100.00
39555;BME280;25231;48.746;9.234;2023-03-30T06:47:57;96253.00;;;12.64;100.00
39555;BME280;25231;48.746;9.234;2023-03-30T06:50:23;96268.78;;;13.06;100.00
39555;BME280;25231;48.746;9.234;2023-03-30T06:52:49;96290.22;;;13.25;100.00
39555;BME280;25231;48.746;9.234;2023-03-30T06:55:14;96294.50;;;13.36;100.00
39555;BME280;25231;48.746;9.234;2023-03-30T06:57:39;96313.00;;;13.09;100.00
39555;BME280;25231;48.746;9.234;2023-03-30T07:00:06;96333.16;;;12.99;100.00
39555;BME280;25231;48.746;9.234;2023-03-30T07:02:39;96327.72;;;13.10;100.00
39555;BME280;25231;48.746;9.234;2023-03-30T07:05:05;96338.50;;;13.04;100.00
39555;BME280;25231;48.746;9.234;2023-03-30T07:07:31;96349.50;;;13.01;100.00
39555;BME280;25231;48.746;9.234;2023-03-30T07:09:57;96350.72;;;12.88;100.00
39555;BME280;25231;48.746;9.234;2023-03-30T07:12:22;96360.19;;;12.89;100.00
39555;BME280;25231;48.746;9.234;2023-03-30T07:14:47;96364.34;;;12.80;100.00
39555;BME280;25231;48.746;9.234;2023-03-30T07:17:13;96372.34;;;12.63;100.00
39555;BME280;25231;48.746;9.234;2023-03-30T07:19:38;96372.34;;;12.63;100.00
39555;BME280;25231;48.746;9.234;2023-03-30T07:22:03;96373.78;;;12.49;100.00
39555;BME280;25231;48.746;9.234;2023-03-30T07:24:29;96376.16;;;12.50;100.00
39555;BME280;25231;48.746;9.234;2023-03-30T07:26:56;96380.09;;;12.48;100.00
39555;BME280;25231;48.746;9.234;2023-03-30T07:29:21;96388.13;;;12.36;100.00
39555;BME280;25231;48.746;9.234;2023-03-30T07:31:47;96393.03;;;12.06;100.00
39555;BME280;25231;48.746;9.234;2023-03-30T07:34:12;96405.25;;;11.95;100.00
39555;BME280;25231;48.746;9.234;2023-03-30T07:36:38;96405.44;;;11.89;100.00
39555;BME280;25231;48.746;9.234;2023-03-30T07:39:04;96398.69;;;11.76;100.00
39555;BME280;25231;48.746;9.234;2023-03-30T07:41:32;96400.06;;;11.79;100.00
39555;BME280;25231;48.746;9.234;2023-03-30T07:43:57;96384.88;;;11.64;100.00
39555;BME280;25231;48.746;9.234;2023-03-30T07:46:23;96370.50;;;11.50;100.00
39555;BME280;25231;48.746;9.234;2023-03-30T07:48:48;96365.47;;;11.48;100.00
39555;BME280;25231;48.746;9.234;2023-03-30T07:51:13;96357.38;;;11.50;100.00
39555;BME280;25231;48.746;9.234;2023-03-30T07:53:39;96383.69;;;11.55;100.00
39555;BME280;25231;48.746;9.234;2023-03-30T07:56:05;96379.00;;;11.57;100.00
39555;BME280;25231;48.746;9.234;2023-03-30T07:58:31;96380.19;;;11.49;100.00
39555;BME280;25231;48.746;9.234;2023-03-30T08:00:57;96362.00;;;11.43;100.00
39555;BME280;25231;48.746;9.234;2023-03-30T08:03:22;96355.53;;;11.29;100.00
39555;BME280;25231;48.746;9.234;2023-03-30T08:05:56;96361.88;;;11.33;100.00
39555;BME280;25231;48.746;9.234;2023-03-30T08:08:23;96356.44;;;11.39;100.00
39555;BME280;25231;48.746;9.234;2023-03-30T08:10:48;96360.56;;;11.52;100.00
39555;BME280;25231;48.746;9.234;2023-03-30T08:13:14;96381.78;;;11.50;100.00
39555;BME280;25231;48.746;9.234;2023-03-30T08:15:39;96396.97;;;11.48;100.00
39555;BME280;25231;48.746;9.234;2023-03-30T08:18:05;96413.44;;;11.44;100.00
39555;BME280;25231;48.746;9.234;2023-03-30T08:20:36;96429.19;;;11.44;100.00
39555;BME280;25231;48.746;9.234;2023-03-30T08:23:02;96439.47;;;11.29;100.00
39555;BME280;25231;48.746;9.234;2023-03-30T08:25:28;96449.31;;;11.38;100.00
39555;BME280;25231;48.746;9.234;2023-03-30T08:27:53;96454.72;;;11.32;100.00
39555;BME280;25231;48.746;9.234;2023-03-30T08:30:19;96463.72;;;11.19;100.00
39555;BME280;25231;48.746;9.234;2023-03-30T08:32:44;96455.53;;;11.15;100.00
39555;BME280;25231;48.746;9.234;2023-03-30T08:35:10;96437.00;;;11.22;100.00
39555;BME280;25231;48.746;9.234;2023-03-30T08:37:36;96449.41;;;11.43;100.00
39555;BME280;25231;48.746;9.234;2023-03-30T08:40:02;96449.31;;;11.55;100.00
39555;BME280;25231;48.746;9.234;2023-03-30T08:45:20;96449.63;;;11.58;100.00
39555;BME280;25231;48.746;9.234;2023-03-30T08:47:50;96443.59;;;11.58;100.00
39555;BME280;25231;48.746;9.234;2023-03-30T08:50:29;96448.91;;;11.63;100.00
39555;BME280;25231;48.746;9.234;2023-03-30T08:52:56;96436.75;;;11.74;100.00
39555;BME280;25231;48.746;9.234;2023-03-30T08:55:43;96426.00;;;11.75;100.00
39555;BME280;25231;48.746;9.234;2023-03-30T09:03:30;96387.31;;;11.71;100.00
39555;BME280;25231;48.746;9.234;2023-03-30T09:06:09;96396.72;;;11.66;100.00
39555;BME280;25231;48.746;9.234;2023-03-30T09:08:35;96391.91;;;11.58;100.00
39555;BME280;25231;48.746;9.234;2023-03-30T09:11:04;96379.81;;;11.57;100.00
39555;BME280;25231;48.746;9.234;2023-03-30T09:13:34;96381.97;;;11.44;100.00
39555;BME280;25231;48.746;9.234;2023-03-30T09:16:03;96388.38;;;11.31;100.00
39555;BME280;25231;48.746;9.234;2023-03-30T09:18:37;96374.44;;;11.31;100.00
39555;BME280;25231;48.746;9.234;2023-03-30T09:21:04;96352.81;;;11.23;100.00
39555;BME280;25231;48.746;9.234;2023-03-30T09:23:31;96357.50;;;11.21;100.00
39555;BME280;25231;48.746;9.234;2023-03-30T09:26:12;96352.13;;;11.11;100.00
39555;BME280;25231;48.746;9.234;2023-03-30T09:29:09;96346.06;;;11.11;100.00
39555;BME280;25231;48.746;9.234;2023-03-30T09:31:39;96337.56;;;11.20;100.00
39555;BME280;25231;48.746;9.234;2023-03-30T09:34:17;96345.88;;;11.34;100.00
39555;BME280;25231;48.746;9.234;2023-03-30T09:37:08;96366.09;;;11.34;100.00
39555;BME280;25231;48.746;9.234;2023-03-30T09:39:36;96361.94;;;11.38;100.00
39555;BME280;25231;48.746;9.234;2023-03-30T09:44:46;96377.03;;;11.47;100.00
39555;BME280;25231;48.746;9.234;2023-03-30T09:49:57;96392.94;;;11.57;100.00
39555;BME280;25231;48.746;9.234;2023-03-30T09:52:25;96390.44;;;11.67;100.00
39555;BME280;25231;48.746;9.234;2023-03-30T09:54:51;96396.19;;;11.64;100.00
39555;BME280;25231;48.746;9.234;2023-03-30T09:57:31;96400.78;;;11.74;100.00
39555;BME280;25231;48.746;9.234;2023-03-30T09:59:58;96398.59;;;11.71;100.00
39555;BME280;25231;48.746;9.234;2023-03-30T10:02:27;96406.97;;;11.68;100.00
39555;BME280;25231;48.746;9.234;2023-03-30T10:04:57;96413.03;;;11.68;100.00
39555;BME280;25231;48.746;9.234;2023-03-30T10:07:33;96415.63;;;11.85;100.00
39555;BME280;25231;48.746;9.234;2023-03-30T10:10:11;96415.53;;;11.97;100.00
39555;BME280;25231;48.746;9.234;2023-03-30T10:12:37;96418.50;;;12.27;100.00
39555;BME280;25231;48.746;9.234;2023-03-30T10:15:03;96405.72;;;12.36;100.00
39555;BME280;25231;48.746;9.234;2023-03-30T10:17:29;96404.38;;;12.33;100.00
39555;BME280;25231;48.746;9.234;2023-03-30T10:23:16;96412.63;;;12.69;100.00
39555;BME280;25231;48.746;9.234;2023-03-30T10:25:44;96407.25;;;12.85;100.00
39555;BME280;25231;48.746;9.234;2023-03-30T10:28:25;96406.59;;;13.00;100.00
39555;BME280;25231;48.746;9.234;2023-03-30T10:30:55;96408.31;;;13.16;100.00
39555;BME280;25231;48.746;9.234;2023-03-30T10:33:22;96405.16;;;13.14;100.00
39555;BME280;25231;48.746;9.234;2023-03-30T10:35:50;96396.66;;;13.07;100.00
39555;BME280;25231;48.746;9.234;2023-03-30T10:38:18;96395.09;;;12.79;100.00
39555;BME280;25231;48.746;9.234;2023-03-30T10:40:45;96386.03;;;12.92;100.00
39555;BME280;25231;48.746;9.234;2023-03-30T10:43:17;96385.53;;;13.00;100.00
39555;BME280;25231;48.746;9.234;2023-03-30T10:45:47;96390.47;;;12.91;100.00
39555;BME280;25231;48.746;9.234;2023-03-30T10:58:53;96391.28;;;12.65;100.00
39555;BME280;25231;48.746;9.234;2023-03-30T11:01:54;96391.84;;;12.67;100.00
39555;BME280;25231;48.746;9.234;2023-03-30T11:05:36;96391.66;;;13.11;100.00
39555;BME280;25231;48.746;9.234;2023-03-30T11:07:58;96376.63;;;13.38;100.00
39555;BME280;25231;48.746;9.234;2023-03-30T11:15:28;96382.44;;;13.40;100.00
39555;BME280;25231;48.746;9.234;2023-03-30T11:20:30;96382.19;;;13.42;100.00
39555;BME280;25231;48.746;9.234;2023-03-30T11:23:06;96374.63;;;13.55;100.00
39555;BME280;25231;48.746;9.234;2023-03-30T11:25:49;96383.31;;;13.56;100.00
39555;BME280;25231;48.746;9.234;2023-03-30T11:28:39;96383.66;;;13.69;100.00
39555;BME280;25231;48.746;9.234;2023-03-30T11:40:22;96385.06;;;14.70;100.00
39555;BME280;25231;48.746;9.234;2023-03-30T11:42:49;96398.81;;;15.02;100.00
39555;BME280;25231;48.746;9.234;2023-03-30T11:46:20;96391.16;;;15.11;100.00
39555;BME280;25231;48.746;9.234;2023-03-30T11:48:51;96383.25;;;14.95;100.00
39555;BME280;25231;48.746;9.234;2023-03-30T11:51:44;96378.22;;;14.89;100.00
39555;BME280;25231;48.746;9.234;2023-03-30T12:00:21;96390.34;;;15.05;100.00
39555;BME280;25231;48.746;9.234;2023-03-30T12:05:36;96403.03;;;15.03;100.00
39555;BME280;25231;48.746;9.234;2023-03-30T12:11:01;96403.56;;;15.10;100.00
39555;BME280;25231;48.746;9.234;2023-03-30T12:13:31;96406.19;;;15.10;100.00
39555;BME280;25231;48.746;9.234;2023-03-30T12:16:07;96412.81;;;15.13;100.00
39555;BME280;25231;48.746;9.234;2023-03-30T12:19:08;96411.75;;;15.04;100.00
39555;BME280;25231;48.746;9.234;2023-03-30T12:21:43;96403.81;;;14.73;100.00
39555;BME280;25231;48.746;9.234;2023-03-30T12:24:27;96399.28;;;14.53;100.00
39555;BME280;25231;48.746;9.234;2023-03-30T12:26:54;96396.91;;;14.47;100.00
39555;BME280;25231;48.746;9.234;2023-03-30T12:29:20;96383.16;;;14.40;100.00
39555;BME280;25231;48.746;9.234;2023-03-30T12:34:15;96374.53;;;14.90;100.00
39555;BME280;25231;48.746;9.234;2023-03-30T12:36:52;96383.50;;;14.94;100.00
39555;BME280;25231;48.746;9.234;2023-03-30T12:39:24;96376.63;;;14.78;100.00
39555;BME280;25231;48.746;9.234;2023-03-30T12:42:06;96383.47;;;14.59;100.00
39555;BME280;25231;48.746;9.234;2023-03-30T12:44:40;96389.00;;;14.67;100.00
39555;BME280;25231;48.746;9.234;2023-03-30T12:55:43;96348.38;;;15.24;98.98
39555;BME280;25231;48.746;9.234;2023-03-30T13:01:20;96354.34;;;15.80;95.99
39555;BME280;25231;48.746;9.234;2023-03-30T13:03:51;96339.03;;;15.77;95.82
39555;BME280;25231;48.746;9.234;2023-03-30T13:12:05;96342.31;;;15.23;93.25
39555;BME280;25231;48.746;9.234;2023-03-30T13:22:18;96316.44;;;15.25;90.00
39555;BME280;25231;48.746;9.234;2023-03-30T13:24:53;96327.50;;;15.37;89.10
39555;BME280;25231;48.746;9.234;2023-03-30T13:27:21;96320.88;;;15.45;85.16
39555;BME280;25231;48.746;9.234;2023-03-30T13:32:41;96321.13;;;15.59;81.01
39555;BME280;25231;48.746;9.234;2023-03-30T13:40:59;96312.44;;;15.43;83.30
39555;BME280;25231;48.746;9.234;2023-03-30T13:46:01;96313.22;;;15.33;84.07
39555;BME280;25231;48.746;9.234;2023-03-30T13:51:23;96307.97;;;15.28;81.07
39555;BME280;25231;48.746;9.234;2023-03-30T13:53:59;96302.66;;;15.38;80.93
39555;BME280;25231;48.746;9.234;2023-03-30T13:56:34;96308.72;;;15.59;80.96
39555;BME280;25231;48.746;9.234;2023-03-30T13:59:05;96309.22;;;15.61;80.54
39555;BME280;25231;48.746;9.234;2023-03-30T14:01:32;96290.94;;;15.75;78.97
39555;BME280;25231;48.746;9.234;2023-03-30T14:03:59;96301.28;;;15.61;78.75
39555;BME280;25231;48.746;9.234;2023-03-30T14:06:29;96283.09;;;15.60;79.25
39555;BME280;25231;48.746;9.234;2023-03-30T14:09:08;96300.00;;;15.59;77.46
39555;BME280;25231;48.746;9.234;2023-03-30T14:11:37;96281.69;;;15.83;77.90
39555;BME280;25231;48.746;9.234;2023-03-30T14:14:04;96288.78;;;15.87;74.09
39555;BME280;25231;48.746;9.234;2023-03-30T14:16:33;96279.78;;;15.88;71.78
39555;BME280;25231;48.746;9.234;2023-03-30T14:19:09;96281.69;;;15.83;73.42
39555;BME280;25231;48.746;9.234;2023-03-30T14:21:41;96280.06;;;15.87;72.39
39555;BME280;25231;48.746;9.234;2023-03-30T14:24:16;96282.84;;;16.05;72.84
39555;BME280;25231;48.746;9.234;2023-03-30T14:26:45;96268.44;;;15.88;66.52
39555;BME280;25231;48.746;9.234;2023-03-30T14:29:18;96291.50;;;15.67;66.95
39555;BME280;25231;48.746;9.234;2023-03-30T14:31:44;96293.59;;;15.75;69.11
39555;BME280;25231;48.746;9.234;2023-03-30T14:34:27;96303.31;;;15.85;69.52
39555;BME280;25231;48.746;9.234;2023-03-30T14:37:04;96289.56;;;15.93;72.14
39555;BME280;25231;48.746;9.234;2023-03-30T14:39:31;96280.00;;;15.97;70.00
39555;BME280;25231;48.746;9.234;2023-03-30T14:42:08;96283.22;;;15.84;67.84
39555;BME280;25231;48.746;9.234;2023-03-30T14:44:37;96288.78;;;16.31;71.29
39555;BME280;25231;48.746;9.234;2023-03-30T14:47:03;96286.19;;;16.26;69.66
39555;BME280;25231;48.746;9.234;2023-03-30T14:49:29;96289.78;;;15.96;66.80
39555;BME280;25231;48.746;9.234;2023-03-30T14:52:01;96290.38;;;15.88;67.27
39555;BME280;25231;48.746;9.234;2023-03-30T14:54:27;96292.31;;;16.21;68.12
39555;BME280;25231;48.746;9.234;2023-03-30T14:56:58;96285.28;;;16.41;63.60
39555;BME280;25231;48.746;9.234;2023-03-30T14:59:25;96294.91;;;16.27;63.53
39555;BME280;25231;48.746;9.234;2023-03-30T15:01:52;96297.53;;;15.77;64.38
39555;BME280;25231;48.746;9.234;2023-03-30T15:04:19;96303.09;;;15.76;65.14
39555;BME280;25231;48.746;9.234;2023-03-30T15:06:47;96298.66;;;15.61;65.40
39555;BME280;25231;48.746;9.234;2023-03-30T15:09:19;96303.75;;;15.37;67.39